createdAt,value
2023-04-09T00:01:26.833Z,6.93
2023-04-09T00:03:54.158Z,7.07
2023-04-09T00:06:31.500Z,7.13
2023-04-09T00:09:10.634Z,6.95
2023-04-09T00:11:53.210Z,9.85
2023-04-09T00:14:26.246Z,6.88
2023-04-09T00:16:55.687Z,7.63
2023-04-09T00:19:23.248Z,8.82
2023-04-09T00:21:52.562Z,7.57
2023-04-09T00:24:23.448Z,8.60
2023-04-09T00:26:51.670Z,7.18
2023-04-09T00:29:19.592Z,14.52
2023-04-09T00:31:50.601Z,11.30
2023-04-09T00:34:22.921Z,13.23
2023-04-09T00:37:00.313Z,10.52
2023-04-09T00:39:27.650Z,10.43
2023-04-09T00:41:59.124Z,16.83
2023-04-09T00:44:28.922Z,10.05
2023-04-09T00:46:59.658Z,7.82
2023-04-09T00:49:32.955Z,10.25
2023-04-09T00:52:01.010Z,9.98
2023-04-09T00:54:33.314Z,8.05
2023-04-09T00:57:00.734Z,9.30
2023-04-09T00:59:30.748Z,6.63
2023-04-09T01:01:57.767Z,8.38
2023-04-09T01:04:25.770Z,7.53
2023-04-09T01:07:09.300Z,10.05
2023-04-09T01:09:38.736Z,7.45
2023-04-09T01:12:53.813Z,6.90
2023-04-09T01:15:34.289Z,10.77
2023-04-09T01:18:18.455Z,6.80
2023-04-09T01:20:58.995Z,7.60
2023-04-09T01:23:52.423Z,7.05
2023-04-09T01:26:56.540Z,8.88
2023-04-09T01:29:33.721Z,10.02
2023-04-09T01:32:06.402Z,7.57
2023-04-09T01:34:34.268Z,10.15
2023-04-09T01:37:06.335Z,11.30
2023-04-09T01:39:33.472Z,7.22
2023-04-09T01:42:04.017Z,10.07
2023-04-09T01:44:32.079Z,13.25
2023-04-09T01:47:00.982Z,8.20
2023-04-09T01:49:33.855Z,9.45
2023-04-09T01:52:10.568Z,6.97
2023-04-09T01:54:45.464Z,8.05
2023-04-09T01:57:14.652Z,6.82
2023-04-09T01:59:41.583Z,7.68
2023-04-09T02:02:18.829Z,9.55
2023-04-09T02:04:50.572Z,8.35
2023-04-09T02:07:40.759Z,8.43
2023-04-09T02:10:12.104Z,7.53
2023-04-09T02:12:45.626Z,7.13
2023-04-09T02:15:13.697Z,10.45
2023-04-09T02:17:47.454Z,7.18
2023-04-09T02:20:30.518Z,9.30
2023-04-09T02:22:57.664Z,8.38
2023-04-09T02:25:27.000Z,9.27
2023-04-09T02:27:54.023Z,6.95
2023-04-09T02:30:26.166Z,11.00
2023-04-09T02:32:55.999Z,7.50
2023-04-09T02:35:25.989Z,7.07
2023-04-09T02:37:53.585Z,7.57
2023-04-09T02:40:22.745Z,8.43
2023-04-09T02:42:53.978Z,7.50
2023-04-09T02:45:30.559Z,6.57
2023-04-09T02:48:12.549Z,6.68
2023-04-09T02:51:11.190Z,6.72
2023-04-09T02:53:51.181Z,6.35
2023-04-09T02:56:20.986Z,7.97
2023-04-09T02:58:51.530Z,6.65
2023-04-09T03:01:19.138Z,7.05
2023-04-09T03:03:52.792Z,8.65
2023-04-09T03:06:22.943Z,8.98
2023-04-09T03:08:50.166Z,8.45
2023-04-09T03:11:20.602Z,9.80
2023-04-09T03:13:47.931Z,6.28
2023-04-09T03:16:15.628Z,7.25
2023-04-09T03:18:45.797Z,7.15
2023-04-09T03:21:16.345Z,8.02
2023-04-09T03:23:47.830Z,8.77
2023-04-09T03:26:14.765Z,7.28
2023-04-09T03:28:46.791Z,7.70
2023-04-09T03:31:22.227Z,8.63
2023-04-09T03:33:50.942Z,13.38
2023-04-09T03:36:19.168Z,6.80
2023-04-09T03:39:01.065Z,9.23
2023-04-09T03:41:40.882Z,7.47
2023-04-09T03:44:11.808Z,6.93
2023-04-09T03:47:16.420Z,7.35
2023-04-09T03:49:43.433Z,6.65
2023-04-09T03:52:20.869Z,7.35
2023-04-09T03:54:56.300Z,10.98
2023-04-09T03:57:36.979Z,9.02
2023-04-09T04:00:15.371Z,7.15
2023-04-09T04:02:54.511Z,7.20
2023-04-09T04:05:41.432Z,10.68
2023-04-09T04:08:16.794Z,7.85
2023-04-09T04:13:23.167Z,7.30
2023-04-09T04:15:55.988Z,9.15
2023-04-09T04:18:35.342Z,7.65
2023-04-09T04:21:28.709Z,6.65
2023-04-09T04:24:05.156Z,7.38
2023-04-09T04:26:34.792Z,10.48
2023-04-09T04:29:05.485Z,11.77
2023-04-09T04:31:54.505Z,6.88
2023-04-09T04:34:24.463Z,6.63
2023-04-09T04:37:04.714Z,7.95
2023-04-09T04:39:34.175Z,8.13
2023-04-09T04:42:11.588Z,8.60
2023-04-09T04:44:52.355Z,6.85
2023-04-09T04:47:44.846Z,6.72
2023-04-09T04:50:22.111Z,6.55
2023-04-09T04:52:55.194Z,8.70
2023-04-09T04:55:30.473Z,11.65
2023-04-09T04:58:07.116Z,11.93
2023-04-09T05:00:43.048Z,8.35
2023-04-09T05:03:10.805Z,7.45
2023-04-09T05:06:04.601Z,11.20
2023-04-09T05:08:43.037Z,11.10
2023-04-09T05:11:15.397Z,20.17
2023-04-09T05:13:51.783Z,11.80
2023-04-09T05:16:22.112Z,16.48
2023-04-09T05:19:03.337Z,12.48
2023-04-09T05:21:32.153Z,19.77
2023-04-09T05:24:03.964Z,13.70
2023-04-09T05:26:43.947Z,13.10
2023-04-09T05:29:17.890Z,15.55
2023-04-09T05:31:49.621Z,14.13
2023-04-09T05:34:28.191Z,13.00
2023-04-09T05:36:59.475Z,17.92
2023-04-09T05:39:26.540Z,11.90
2023-04-09T05:41:53.291Z,11.65
2023-04-09T05:44:37.089Z,10.93
2023-04-09T05:47:14.650Z,10.15
2023-04-09T05:49:47.710Z,9.85
2023-04-09T05:52:17.248Z,10.57
2023-04-09T05:54:44.424Z,12.52
2023-04-09T05:57:21.556Z,9.20
2023-04-09T05:59:56.457Z,8.15
2023-04-09T06:02:26.890Z,8.57
2023-04-09T06:04:54.315Z,8.95
2023-04-09T06:07:21.185Z,9.85
2023-04-09T06:09:48.244Z,7.95
2023-04-09T06:12:15.884Z,7.78
2023-04-09T06:14:43.763Z,8.15
2023-04-09T06:17:11.271Z,7.65
2023-04-09T06:19:41.859Z,7.50
2023-04-09T06:22:11.681Z,9.13
2023-04-09T06:24:38.477Z,15.85
2023-04-09T06:27:05.375Z,8.82
2023-04-09T06:29:38.805Z,8.48
2023-04-09T06:32:06.040Z,10.45
2023-04-09T06:34:35.482Z,8.00
2023-04-09T06:37:03.851Z,7.95
2023-04-09T06:39:34.660Z,12.48
2023-04-09T06:42:59.249Z,10.48
2023-04-09T06:46:01.157Z,12.43
2023-04-09T06:54:21.054Z,12.57
2023-04-09T06:59:34.835Z,12.20
2023-04-09T07:02:17.870Z,9.60
2023-04-09T07:11:35.092Z,11.60
2023-04-09T07:14:01.942Z,7.90
2023-04-09T07:16:46.209Z,8.43
2023-04-09T07:19:15.817Z,9.25
2023-04-09T07:25:12.120Z,5.88
2023-04-09T07:28:22.443Z,8.90
2023-04-09T07:38:32.755Z,4.93
2023-04-09T07:41:47.664Z,5.65
2023-04-09T07:45:15.995Z,6.63
2023-04-09T07:48:13.940Z,10.20
2023-04-09T07:57:18.369Z,7.00
2023-04-09T08:00:15.842Z,5.70
2023-04-09T08:02:45.321Z,6.50
2023-04-09T08:05:15.272Z,6.43
2023-04-09T08:07:42.359Z,6.38
2023-04-09T08:10:17.508Z,8.50
2023-04-09T08:12:44.973Z,5.32
2023-04-09T08:15:14.298Z,11.13
2023-04-09T08:17:51.022Z,10.30
2023-04-09T08:20:20.840Z,7.32
2023-04-09T08:22:52.273Z,5.10
2023-04-09T08:25:19.286Z,5.32
2023-04-09T08:27:46.546Z,7.07
2023-04-09T08:30:18.266Z,5.35
2023-04-09T08:32:45.896Z,8.88
2023-04-09T08:35:13.984Z,5.15
2023-04-09T08:37:48.833Z,6.60
2023-04-09T08:40:18.104Z,4.15
2023-04-09T08:42:53.004Z,5.65
2023-04-09T08:46:06.830Z,4.63
2023-04-09T08:48:37.878Z,4.70
2023-04-09T08:51:05.579Z,4.63
2023-04-09T08:53:32.477Z,3.70
2023-04-09T08:56:03.931Z,6.57
2023-04-09T08:58:36.089Z,3.92
2023-04-09T09:01:23.674Z,4.20
2023-04-09T09:04:09.702Z,2.92
2023-04-09T09:09:22.809Z,6.50
2023-04-09T09:11:56.101Z,7.95
2023-04-09T09:14:40.100Z,6.15
2023-04-09T09:17:23.831Z,8.65
2023-04-09T09:19:51.300Z,7.82
2023-04-09T09:22:30.015Z,5.35
2023-04-09T09:24:59.214Z,5.97
2023-04-09T09:27:40.502Z,3.65
2023-04-09T09:30:24.441Z,4.88
2023-04-09T09:33:09.773Z,5.82
2023-04-09T09:38:25.600Z,8.32
2023-04-09T09:40:53.719Z,4.47
2023-04-09T09:43:21.595Z,9.02
2023-04-09T09:45:51.576Z,3.45
2023-04-09T09:48:21.178Z,4.40
2023-04-09T09:50:49.154Z,3.15
2023-04-09T09:53:22.708Z,5.10
2023-04-09T09:55:52.487Z,3.55
2023-04-09T09:58:32.020Z,3.60
2023-04-09T10:01:01.271Z,13.80
2023-04-09T10:03:30.808Z,5.65
2023-04-09T10:06:26.347Z,9.90
2023-04-09T10:08:57.821Z,4.15
2023-04-09T10:11:29.052Z,3.85
2023-04-09T10:13:59.496Z,5.45
2023-04-09T10:16:29.545Z,4.47
2023-04-09T10:18:57.717Z,5.15
2023-04-09T10:21:36.058Z,3.67
2023-04-09T10:24:06.160Z,9.25
2023-04-09T10:26:36.732Z,4.38
2023-04-09T10:29:14.036Z,3.50
2023-04-09T10:32:09.627Z,6.20
2023-04-09T10:34:42.835Z,6.00
2023-04-09T10:37:14.190Z,4.30
2023-04-09T10:39:45.082Z,4.82
2023-04-09T10:42:17.099Z,13.88
2023-04-09T10:44:44.447Z,6.45
2023-04-09T10:47:33.347Z,4.38
2023-04-09T10:50:17.576Z,2.92
2023-04-09T10:52:44.698Z,5.07
2023-04-09T10:55:41.552Z,4.93
2023-04-09T10:58:13.662Z,4.53
2023-04-09T11:00:42.983Z,5.47
2023-04-09T11:03:22.939Z,4.00
2023-04-09T11:06:06.095Z,2.90
2023-04-09T11:08:50.601Z,7.10
2023-04-09T11:11:32.329Z,3.17
2023-04-09T11:14:01.673Z,5.07
2023-04-09T11:16:32.052Z,5.38
2023-04-09T11:19:01.572Z,4.07
2023-04-09T11:21:31.533Z,4.20
2023-04-09T11:23:58.483Z,3.42
2023-04-09T11:26:36.204Z,4.55
2023-04-09T11:29:09.250Z,5.80
2023-04-09T11:31:39.860Z,4.68
2023-04-09T11:34:12.546Z,5.25
2023-04-09T11:36:41.044Z,7.75
2023-04-09T11:39:07.998Z,4.10
2023-04-09T11:41:38.361Z,4.55
2023-04-09T11:44:05.428Z,6.03
2023-04-09T11:46:38.842Z,6.95
2023-04-09T11:49:05.987Z,8.48
2023-04-09T11:51:33.085Z,3.47
2023-04-09T11:54:03.622Z,8.30
2023-04-09T11:56:31.272Z,8.85
2023-04-09T11:58:58.869Z,6.25
2023-04-09T12:01:32.557Z,8.40
2023-04-09T12:04:00.777Z,6.53
2023-04-09T12:06:28.557Z,4.47
2023-04-09T12:08:59.517Z,2.67
2023-04-09T12:11:52.629Z,8.82
2023-04-09T12:14:21.916Z,5.10
2023-04-09T12:16:52.518Z,8.38
2023-04-09T12:19:20.503Z,7.43
2023-04-09T12:21:50.050Z,5.10
2023-04-09T12:24:18.593Z,5.88
2023-04-09T12:26:49.442Z,4.53
2023-04-09T12:29:19.117Z,5.88
2023-04-09T12:31:47.107Z,8.27
2023-04-09T12:34:14.454Z,13.18
2023-04-09T12:36:44.133Z,7.65
2023-04-09T12:39:11.070Z,3.42
2023-04-09T12:41:37.984Z,3.83
2023-04-09T12:44:05.325Z,6.60
2023-04-09T12:46:32.784Z,3.70
2023-04-09T12:48:59.758Z,6.55
2023-04-09T12:51:26.653Z,3.50
2023-04-09T12:53:53.896Z,6.32
2023-04-09T12:56:20.876Z,7.30
2023-04-09T12:58:50.581Z,7.18
2023-04-09T13:01:18.210Z,5.20
2023-04-09T13:03:45.243Z,4.35
2023-04-09T13:06:12.204Z,4.60
2023-04-09T13:08:39.155Z,5.57
2023-04-09T13:11:06.247Z,4.38
2023-04-09T13:13:33.696Z,10.82
2023-04-09T13:16:00.620Z,3.95
2023-04-09T13:18:27.481Z,8.02
2023-04-09T13:20:54.229Z,3.20
2023-04-09T13:23:21.036Z,4.20
2023-04-09T13:25:47.865Z,6.82
2023-04-09T13:28:14.706Z,3.40
2023-04-09T13:30:41.531Z,13.65
2023-04-09T13:33:10.521Z,8.38
2023-04-09T13:35:37.424Z,5.18
2023-04-09T13:38:04.426Z,7.15
2023-04-09T13:40:31.312Z,7.88
2023-04-09T13:42:58.286Z,5.47
2023-04-09T13:45:25.339Z,6.72
2023-04-09T13:47:52.200Z,6.65
2023-04-09T13:50:18.998Z,5.65
2023-04-09T13:52:45.667Z,7.78
2023-04-09T13:55:12.358Z,5.22
2023-04-09T13:57:39.163Z,5.13
2023-04-09T14:00:14.912Z,4.75
2023-04-09T14:02:41.963Z,9.80
2023-04-09T14:05:09.002Z,7.45
2023-04-09T14:07:35.978Z,6.45
2023-04-09T14:10:02.874Z,5.97
2023-04-09T14:12:29.596Z,6.30
2023-04-09T14:14:56.312Z,6.18
2023-04-09T14:17:23.080Z,12.73
2023-04-09T14:19:49.767Z,6.57
2023-04-09T14:22:16.382Z,8.93
2023-04-09T14:24:42.999Z,7.50
2023-04-09T14:27:09.684Z,8.45
2023-04-09T14:29:36.681Z,7.63
2023-04-09T14:32:03.311Z,8.65
2023-04-09T14:34:31.257Z,7.78
2023-04-09T14:36:58.050Z,9.77
2023-04-09T14:39:24.795Z,7.53
2023-04-09T14:41:52.248Z,7.18
2023-04-09T14:44:18.948Z,6.00
2023-04-09T14:46:45.826Z,5.28
2023-04-09T14:49:13.237Z,6.60
2023-04-09T14:51:41.304Z,5.28
2023-04-09T14:54:08.019Z,5.32
2023-04-09T14:56:34.666Z,5.63
2023-04-09T14:59:01.415Z,6.03
2023-04-09T15:01:28.268Z,6.10
2023-04-09T15:03:55.783Z,5.63
2023-04-09T15:06:22.787Z,5.03
2023-04-09T15:08:49.592Z,4.38
2023-04-09T15:11:17.311Z,5.25
2023-04-09T15:13:44.264Z,5.60
2023-04-09T15:16:12.794Z,5.32
2023-04-09T15:18:39.461Z,5.90
2023-04-09T15:21:06.244Z,6.38
2023-04-09T15:23:39.064Z,6.65
2023-04-09T15:26:05.960Z,7.10
2023-04-09T15:28:32.770Z,6.50
2023-04-09T15:31:00.565Z,7.10
2023-04-09T15:33:28.044Z,6.97
2023-04-09T15:35:57.355Z,6.85
2023-04-09T15:38:25.242Z,6.72
2023-04-09T15:40:52.863Z,6.50
2023-04-09T15:43:19.641Z,7.53
2023-04-09T15:45:48.577Z,7.55
2023-04-09T15:48:19.288Z,9.27
2023-04-09T15:50:48.693Z,7.07
2023-04-09T15:53:16.093Z,7.40
2023-04-09T15:55:42.865Z,7.45
2023-04-09T15:58:14.886Z,7.88
2023-04-09T16:00:43.992Z,7.68
2023-04-09T16:03:11.515Z,8.40
2023-04-09T16:05:39.070Z,8.52
2023-04-09T16:08:06.296Z,7.90
2023-04-09T16:10:33.171Z,8.40
2023-04-09T16:12:59.909Z,8.95
2023-04-09T16:15:27.181Z,10.77
2023-04-09T16:17:53.947Z,10.40
2023-04-09T16:20:21.042Z,11.32
2023-04-09T16:22:48.180Z,9.52
2023-04-09T16:25:15.415Z,8.48
2023-04-09T16:27:42.427Z,9.18
2023-04-09T16:30:12.281Z,8.90
2023-04-09T16:32:39.266Z,9.70
2023-04-09T16:35:06.524Z,11.00
2023-04-09T16:37:35.111Z,11.35
2023-04-09T16:40:02.051Z,12.60
2023-04-09T16:42:30.343Z,15.07
2023-04-09T16:44:57.212Z,15.82
2023-04-09T16:47:23.937Z,16.95
2023-04-09T16:49:50.628Z,17.65
2023-04-09T16:52:17.360Z,16.48
2023-04-09T16:54:44.136Z,15.60
2023-04-09T16:57:10.875Z,15.15
2023-04-09T16:59:37.650Z,12.90
2023-04-09T17:02:04.517Z,12.05
2023-04-09T17:04:33.728Z,10.35
2023-04-09T17:07:00.839Z,9.77
2023-04-09T17:09:34.087Z,8.77
2023-04-09T17:12:01.324Z,10.95
2023-04-09T17:14:28.008Z,9.45
2023-04-09T17:16:55.016Z,9.50
2023-04-09T17:19:21.722Z,8.85
2023-04-09T17:21:48.362Z,10.50
2023-04-09T17:24:15.694Z,8.95
2023-04-09T17:26:42.383Z,9.52
2023-04-09T17:29:09.072Z,10.50
2023-04-09T17:31:35.819Z,12.82
2023-04-09T17:34:05.525Z,10.77
2023-04-09T17:36:32.213Z,11.05
2023-04-09T17:38:58.848Z,10.68
2023-04-09T17:41:26.172Z,10.65
2023-04-09T17:43:52.953Z,9.73
2023-04-09T17:46:19.757Z,9.65
2023-04-09T17:48:46.732Z,9.93
2023-04-09T17:51:19.859Z,9.75
2023-04-09T17:53:48.979Z,10.38
2023-04-09T17:56:17.104Z,10.52
2023-04-09T17:58:44.775Z,11.10
2023-04-09T18:01:15.105Z,10.25
2023-04-09T18:03:46.166Z,11.15
2023-04-09T18:06:14.773Z,11.65
2023-04-09T18:09:06.287Z,13.50
2023-04-09T18:11:33.097Z,12.95
2023-04-09T18:13:59.808Z,15.35
2023-04-09T18:16:26.583Z,14.95
2023-04-09T18:18:53.634Z,14.75
2023-04-09T18:21:20.530Z,14.88
2023-04-09T18:23:47.332Z,14.05
2023-04-09T18:26:14.054Z,12.93
2023-04-09T18:28:42.899Z,13.32
2023-04-09T18:31:11.717Z,17.13
2023-04-09T18:33:38.384Z,10.75
2023-04-09T18:36:05.663Z,10.52
2023-04-09T18:38:32.464Z,9.57
2023-04-09T18:41:00.129Z,8.57
2023-04-09T18:43:29.416Z,9.52
2023-04-09T18:46:05.782Z,10.15
2023-04-09T18:48:32.962Z,9.93
2023-04-09T18:51:01.685Z,9.95
2023-04-09T18:53:31.775Z,9.98
2023-04-09T18:55:58.576Z,10.90
2023-04-09T18:58:25.461Z,11.43
2023-04-09T19:00:52.314Z,13.00
2023-04-09T19:03:19.825Z,13.52
2023-04-09T19:05:51.415Z,12.98
2023-04-09T19:08:18.068Z,13.38
2023-04-09T19:10:47.544Z,10.93
2023-04-09T19:13:14.394Z,11.30
2023-04-09T19:15:41.101Z,12.05
2023-04-09T19:18:07.926Z,11.90
2023-04-09T19:20:39.565Z,11.10
2023-04-09T19:23:06.719Z,11.10
2023-04-09T19:25:34.221Z,9.77
2023-04-09T19:28:03.732Z,10.73
2023-04-09T19:30:33.187Z,10.43
2023-04-09T19:33:08.638Z,11.38
2023-04-09T19:35:41.981Z,10.88
2023-04-09T19:38:40.371Z,9.65
2023-04-09T19:44:23.698Z,10.95
2023-04-09T19:47:34.260Z,10.68
2023-04-09T19:50:37.217Z,9.88
2023-04-09T19:53:29.135Z,10.95
2023-04-09T19:56:19.027Z,11.25
2023-04-09T19:58:46.055Z,12.35
2023-04-09T20:01:13.227Z,13.48
2023-04-09T20:03:44.553Z,12.68
2023-04-09T20:06:11.856Z,14.40
2023-04-09T20:08:38.808Z,14.55
2023-04-09T20:11:06.185Z,14.95
2023-04-09T20:13:33.848Z,16.75
2023-04-09T20:16:00.959Z,16.45
2023-04-09T20:18:47.570Z,15.85
2023-04-09T20:21:24.991Z,17.95
2023-04-09T20:24:02.392Z,17.25
2023-04-09T20:26:33.136Z,17.38
2023-04-09T20:29:17.057Z,18.90
2023-04-09T20:32:05.086Z,18.60
2023-04-09T20:34:36.862Z,21.27
2023-04-09T20:37:11.180Z,18.67
2023-04-09T20:39:42.757Z,18.73
2023-04-09T20:42:16.735Z,20.25
2023-04-09T20:44:55.021Z,18.77
2023-04-09T20:47:31.127Z,21.10
2023-04-09T20:50:01.399Z,19.45
2023-04-09T20:52:28.577Z,18.60
2023-04-09T20:54:59.288Z,20.08
2023-04-09T20:57:31.505Z,21.50
2023-04-09T21:00:04.443Z,20.50
2023-04-09T21:02:44.714Z,20.25
2023-04-09T21:05:22.482Z,17.88
2023-04-09T21:08:01.006Z,19.42
2023-04-09T21:10:28.081Z,17.77
2023-04-09T21:12:55.410Z,16.05
2023-04-09T21:15:22.262Z,15.52
2023-04-09T21:17:54.604Z,18.05
2023-04-09T21:20:21.609Z,15.82
2023-04-09T21:22:48.443Z,14.57
2023-04-09T21:25:15.650Z,15.50
2023-04-09T21:27:46.871Z,15.25
2023-04-09T21:30:14.220Z,15.13
2023-04-09T21:32:41.277Z,14.88
2023-04-09T21:35:08.269Z,16.15
2023-04-09T21:37:37.580Z,15.73
2023-04-09T21:40:05.352Z,15.85
2023-04-09T21:42:32.292Z,15.80
2023-04-09T21:45:01.543Z,14.45
2023-04-09T21:47:29.396Z,16.00
2023-04-09T21:49:56.264Z,15.18
2023-04-09T21:52:23.378Z,14.50
2023-04-09T21:54:54.687Z,15.07
2023-04-09T21:57:24.491Z,15.40
2023-04-09T21:59:52.584Z,13.10
2023-04-09T22:02:19.550Z,14.93
2023-04-09T22:04:46.620Z,15.30
2023-04-09T22:07:13.639Z,15.45
2023-04-09T22:09:40.533Z,15.32
2023-04-09T22:12:07.289Z,14.05
2023-04-09T22:14:34.157Z,13.27
2023-04-09T22:17:02.955Z,13.63
2023-04-09T22:19:31.427Z,13.68
2023-04-09T22:22:02.250Z,13.93
2023-04-09T22:24:32.023Z,12.50
2023-04-09T22:26:59.956Z,12.63
2023-04-09T22:29:30.637Z,13.65
2023-04-09T22:32:00.068Z,12.90
2023-04-09T22:34:26.878Z,13.05
2023-04-09T22:36:53.751Z,14.40
2023-04-09T22:39:24.156Z,12.82
2023-04-09T22:41:51.113Z,13.90
2023-04-09T22:44:20.688Z,14.07
2023-04-09T22:46:47.646Z,14.50
2023-04-09T22:49:14.427Z,13.95
2023-04-09T22:51:41.920Z,16.05
2023-04-09T22:54:23.566Z,17.83
2023-04-09T23:11:24.899Z,24.08
2023-04-09T23:14:02.442Z,27.33
2023-04-09T23:16:44.192Z,25.23
2023-04-09T23:19:27.966Z,25.48
2023-04-09T23:21:55.086Z,25.10
2023-04-09T23:24:28.094Z,25.38
2023-04-09T23:27:00.890Z,24.40
2023-04-09T23:32:32.445Z,24.63
2023-04-09T23:35:12.007Z,24.35
2023-04-09T23:37:56.048Z,23.63
2023-04-09T23:40:29.711Z,23.00
2023-04-09T23:43:06.185Z,20.88
2023-04-09T23:45:42.032Z,26.02
2023-04-09T23:48:14.242Z,25.15
2023-04-09T23:50:46.993Z,21.02
2023-04-09T23:55:45.801Z,19.75
2023-04-09T23:58:18.057Z,20.00
